sensor_id;sensor_type;location;lat;lon;timestamp;P1;durP1;ratioP1;P2;durP2;ratioP2
75426;SDS011;64007;50.632;13.700;2023-04-30T00:01:56;9.45;;;6.07;;
75426;SDS011;64007;50.632;13.700;2023-04-30T00:04:22;10.85;;;6.60;;
75426;SDS011;64007;50.632;13.700;2023-04-30T00:06:48;10.05;;;6.20;;
75426;SDS011;64007;50.632;13.700;2023-04-30T00:09:14;13.90;;;7.80;;
75426;SDS011;64007;50.632;13.700;2023-04-30T00:11:40;13.43;;;6.97;;
75426;SDS011;64007;50.632;13.700;2023-04-30T00:14:06;11.30;;;6.13;;
75426;SDS011;64007;50.632;13.700;2023-04-30T00:16:31;12.52;;;6.22;;
75426;SDS011;64007;50.632;13.700;2023-04-30T00:18:57;13.75;;;6.97;;
75426;SDS011;64007;50.632;13.700;2023-04-30T00:21:23;13.50;;;6.50;;
75426;SDS011;64007;50.632;13.700;2023-04-30T00:23:48;11.02;;;6.55;;
75426;SDS011;64007;50.632;13.700;2023-04-30T00:26:14;11.02;;;6.50;;
75426;SDS011;64007;50.632;13.700;2023-04-30T00:28:42;14.20;;;6.93;;
75426;SDS011;64007;50.632;13.700;2023-04-30T00:31:09;13.10;;;6.82;;
75426;SDS011;64007;50.632;13.700;2023-04-30T00:33:35;12.55;;;7.50;;
75426;SDS011;64007;50.632;13.700;2023-04-30T00:36:00;12.07;;;7.97;;
75426;SDS011;64007;50.632;13.700;2023-04-30T00:38:27;7.63;;;6.10;;
75426;SDS011;64007;50.632;13.700;2023-04-30T00:40:52;10.30;;;6.85;;
75426;SDS011;64007;50.632;13.700;2023-04-30T00:43:18;12.45;;;7.78;;
75426;SDS011;64007;50.632;13.700;2023-04-30T00:45:44;12.10;;;6.85;;
75426;SDS011;64007;50.632;13.700;2023-04-30T00:48:10;11.77;;;6.03;;
75426;SDS011;64007;50.632;13.700;2023-04-30T00:50:35;16.27;;;6.38;;
75426;SDS011;64007;50.632;13.700;2023-04-30T00:53:02;11.40;;;6.68;;
75426;SDS011;64007;50.632;13.700;2023-04-30T00:55:28;10.70;;;6.50;;
75426;SDS011;64007;50.632;13.700;2023-04-30T00:57:54;11.38;;;6.68;;
75426;SDS011;64007;50.632;13.700;2023-04-30T01:00:20;12.00;;;7.32;;
75426;SDS011;64007;50.632;13.700;2023-04-30T01:02:46;10.85;;;7.22;;
75426;SDS011;64007;50.632;13.700;2023-04-30T01:05:13;12.55;;;7.57;;
75426;SDS011;64007;50.632;13.700;2023-04-30T01:07:39;11.68;;;6.97;;
75426;SDS011;64007;50.632;13.700;2023-04-30T01:10:09;11.10;;;6.97;;
75426;SDS011;64007;50.632;13.700;2023-04-30T01:15:29;9.48;;;6.22;;
75426;SDS011;64007;50.632;13.700;2023-04-30T01:18:03;13.15;;;6.30;;
75426;SDS011;64007;50.632;13.700;2023-04-30T01:20:34;10.15;;;6.05;;
75426;SDS011;64007;50.632;13.700;2023-04-30T01:23:13;9.95;;;6.10;;
75426;SDS011;64007;50.632;13.700;2023-04-30T01:26:28;9.70;;;5.35;;
75426;SDS011;64007;50.632;13.700;2023-04-30T01:28:50;7.88;;;5.38;;
75426;SDS011;64007;50.632;13.700;2023-04-30T01:31:17;8.35;;;5.55;;
75426;SDS011;64007;50.632;13.700;2023-04-30T01:33:44;12.52;;;6.05;;
75426;SDS011;64007;50.632;13.700;2023-04-30T01:36:28;10.45;;;5.38;;
75426;SDS011;64007;50.632;13.700;2023-04-30T01:50:37;10.52;;;6.20;;
75426;SDS011;64007;50.632;13.700;2023-04-30T01:53:01;9.02;;;5.28;;
75426;SDS011;64007;50.632;13.700;2023-04-30T01:55:42;9.48;;;4.93;;
75426;SDS011;64007;50.632;13.700;2023-04-30T01:58:11;9.90;;;5.57;;
75426;SDS011;64007;50.632;13.700;2023-04-30T02:00:39;9.05;;;5.07;;
75426;SDS011;64007;50.632;13.700;2023-04-30T02:03:05;11.68;;;6.20;;
75426;SDS011;64007;50.632;13.700;2023-04-30T02:05:32;9.55;;;6.40;;
75426;SDS011;64007;50.632;13.700;2023-04-30T02:07:57;8.55;;;5.93;;
75426;SDS011;64007;50.632;13.700;2023-04-30T02:10:24;10.70;;;6.50;;
75426;SDS011;64007;50.632;13.700;2023-04-30T02:12:50;8.77;;;5.43;;
75426;SDS011;64007;50.632;13.700;2023-04-30T02:15:17;10.98;;;5.63;;
75426;SDS011;64007;50.632;13.700;2023-04-30T02:17:44;14.50;;;4.57;;
75426;SDS011;64007;50.632;13.700;2023-04-30T02:20:10;10.70;;;4.40;;
75426;SDS011;64007;50.632;13.700;2023-04-30T02:22:36;8.27;;;4.35;;
75426;SDS011;64007;50.632;13.700;2023-04-30T02:25:02;7.45;;;4.78;;
75426;SDS011;64007;50.632;13.700;2023-04-30T02:27:29;7.13;;;4.82;;
75426;SDS011;64007;50.632;13.700;2023-04-30T02:29:56;7.60;;;4.28;;
75426;SDS011;64007;50.632;13.700;2023-04-30T02:32:22;9.35;;;4.43;;
75426;SDS011;64007;50.632;13.700;2023-04-30T02:34:48;7.80;;;5.20;;
75426;SDS011;64007;50.632;13.700;2023-04-30T02:37:13;9.75;;;5.65;;
75426;SDS011;64007;50.632;13.700;2023-04-30T02:39:40;9.50;;;4.60;;
75426;SDS011;64007;50.632;13.700;2023-04-30T02:42:05;9.35;;;3.90;;
75426;SDS011;64007;50.632;13.700;2023-04-30T02:44:32;9.52;;;4.68;;
75426;SDS011;64007;50.632;13.700;2023-04-30T02:46:58;11.00;;;5.32;;
75426;SDS011;64007;50.632;13.700;2023-04-30T02:49:25;12.48;;;5.35;;
75426;SDS011;64007;50.632;13.700;2023-04-30T02:51:51;11.32;;;5.78;;
75426;SDS011;64007;50.632;13.700;2023-04-30T02:54:17;7.97;;;5.22;;
75426;SDS011;64007;50.632;13.700;2023-04-30T02:56:43;7.53;;;4.80;;
75426;SDS011;64007;50.632;13.700;2023-04-30T02:59:09;7.07;;;4.82;;
75426;SDS011;64007;50.632;13.700;2023-04-30T03:01:35;7.68;;;5.00;;
75426;SDS011;64007;50.632;13.700;2023-04-30T03:04:01;11.95;;;5.20;;
75426;SDS011;64007;50.632;13.700;2023-04-30T03:06:29;7.55;;;4.97;;
75426;SDS011;64007;50.632;13.700;2023-04-30T03:08:56;7.38;;;4.75;;
75426;SDS011;64007;50.632;13.700;2023-04-30T03:11:21;8.07;;;4.55;;
75426;SDS011;64007;50.632;13.700;2023-04-30T03:13:47;8.95;;;5.10;;
75426;SDS011;64007;50.632;13.700;2023-04-30T03:16:16;7.72;;;4.55;;
75426;SDS011;64007;50.632;13.700;2023-04-30T03:18:44;6.82;;;4.57;;
75426;SDS011;64007;50.632;13.700;2023-04-30T03:21:10;6.45;;;4.15;;
75426;SDS011;64007;50.632;13.700;2023-04-30T03:23:36;8.73;;;4.50;;
75426;SDS011;64007;50.632;13.700;2023-04-30T03:26:02;8.57;;;4.40;;
75426;SDS011;64007;50.632;13.700;2023-04-30T03:28:28;8.02;;;4.43;;
75426;SDS011;64007;50.632;13.700;2023-04-30T03:30:53;8.02;;;4.30;;
75426;SDS011;64007;50.632;13.700;2023-04-30T03:33:19;8.52;;;4.00;;
75426;SDS011;64007;50.632;13.700;2023-04-30T03:35:45;6.65;;;4.20;;
75426;SDS011;64007;50.632;13.700;2023-04-30T03:38:11;6.78;;;4.35;;
75426;SDS011;64007;50.632;13.700;2023-04-30T03:40:36;7.50;;;3.90;;
75426;SDS011;64007;50.632;13.700;2023-04-30T03:43:02;8.57;;;4.53;;
75426;SDS011;64007;50.632;13.700;2023-04-30T03:45:28;6.70;;;4.10;;
75426;SDS011;64007;50.632;13.700;2023-04-30T03:47:54;7.47;;;4.13;;
75426;SDS011;64007;50.632;13.700;2023-04-30T03:50:20;8.45;;;5.50;;
75426;SDS011;64007;50.632;13.700;2023-04-30T03:52:45;9.95;;;4.43;;
75426;SDS011;64007;50.632;13.700;2023-04-30T03:55:11;10.00;;;4.20;;
75426;SDS011;64007;50.632;13.700;2023-04-30T03:57:37;7.15;;;4.78;;
75426;SDS011;64007;50.632;13.700;2023-04-30T04:00:05;11.23;;;5.20;;
75426;SDS011;64007;50.632;13.700;2023-04-30T04:02:34;6.25;;;4.22;;
75426;SDS011;64007;50.632;13.700;2023-04-30T04:05:01;10.55;;;4.63;;
75426;SDS011;64007;50.632;13.700;2023-04-30T04:07:28;8.07;;;4.80;;
75426;SDS011;64007;50.632;13.700;2023-04-30T04:09:53;8.07;;;4.68;;
75426;SDS011;64007;50.632;13.700;2023-04-30T04:12:20;7.85;;;4.45;;
75426;SDS011;64007;50.632;13.700;2023-04-30T04:14:46;6.25;;;4.40;;
75426;SDS011;64007;50.632;13.700;2023-04-30T04:17:11;8.75;;;5.28;;
75426;SDS011;64007;50.632;13.700;2023-04-30T04:19:38;12.13;;;4.90;;
75426;SDS011;64007;50.632;13.700;2023-04-30T04:22:05;10.02;;;4.93;;
75426;SDS011;64007;50.632;13.700;2023-04-30T04:24:30;5.97;;;4.53;;
75426;SDS011;64007;50.632;13.700;2023-04-30T04:26:56;8.77;;;4.78;;
75426;SDS011;64007;50.632;13.700;2023-04-30T04:29:22;7.28;;;4.88;;
75426;SDS011;64007;50.632;13.700;2023-04-30T04:31:48;7.30;;;4.47;;
75426;SDS011;64007;50.632;13.700;2023-04-30T04:34:15;6.03;;;4.25;;
75426;SDS011;64007;50.632;13.700;2023-04-30T04:36:41;6.93;;;4.38;;
75426;SDS011;64007;50.632;13.700;2023-04-30T04:39:07;8.15;;;4.35;;
75426;SDS011;64007;50.632;13.700;2023-04-30T04:41:33;7.95;;;4.40;;
75426;SDS011;64007;50.632;13.700;2023-04-30T04:44:02;12.05;;;4.10;;
75426;SDS011;64007;50.632;13.700;2023-04-30T04:46:29;6.65;;;4.20;;
75426;SDS011;64007;50.632;13.700;2023-04-30T04:48:55;6.75;;;4.18;;
75426;SDS011;64007;50.632;13.700;2023-04-30T04:51:22;7.15;;;4.60;;
75426;SDS011;64007;50.632;13.700;2023-04-30T04:53:48;9.18;;;4.80;;
75426;SDS011;64007;50.632;13.700;2023-04-30T04:56:14;8.52;;;4.22;;
75426;SDS011;64007;50.632;13.700;2023-04-30T04:58:40;6.35;;;4.07;;
75426;SDS011;64007;50.632;13.700;2023-04-30T05:01:07;8.38;;;4.22;;
75426;SDS011;64007;50.632;13.700;2023-04-30T05:03:33;7.13;;;4.10;;
75426;SDS011;64007;50.632;13.700;2023-04-30T05:06:02;5.65;;;3.65;;
75426;SDS011;64007;50.632;13.700;2023-04-30T05:08:28;7.32;;;3.97;;
75426;SDS011;64007;50.632;13.700;2023-04-30T05:10:54;6.60;;;3.50;;
75426;SDS011;64007;50.632;13.700;2023-04-30T05:13:19;8.23;;;4.13;;
75426;SDS011;64007;50.632;13.700;2023-04-30T05:15:46;7.13;;;3.72;;
75426;SDS011;64007;50.632;13.700;2023-04-30T05:18:13;6.25;;;4.18;;
75426;SDS011;64007;50.632;13.700;2023-04-30T05:20:39;6.68;;;4.18;;
75426;SDS011;64007;50.632;13.700;2023-04-30T05:23:05;7.82;;;4.30;;
75426;SDS011;64007;50.632;13.700;2023-04-30T05:25:30;13.38;;;4.32;;
75426;SDS011;64007;50.632;13.700;2023-04-30T05:27:56;8.20;;;4.60;;
75426;SDS011;64007;50.632;13.700;2023-04-30T05:30:22;6.47;;;4.10;;
75426;SDS011;64007;50.632;13.700;2023-04-30T05:32:48;7.10;;;4.53;;
75426;SDS011;64007;50.632;13.700;2023-04-30T05:35:17;8.80;;;4.20;;
75426;SDS011;64007;50.632;13.700;2023-04-30T05:37:43;6.50;;;3.80;;
75426;SDS011;64007;50.632;13.700;2023-04-30T05:40:09;6.40;;;4.00;;
75426;SDS011;64007;50.632;13.700;2023-04-30T05:42:35;7.70;;;3.90;;
75426;SDS011;64007;50.632;13.700;2023-04-30T05:45:02;6.28;;;4.30;;
75426;SDS011;64007;50.632;13.700;2023-04-30T05:47:28;6.43;;;4.00;;
75426;SDS011;64007;50.632;13.700;2023-04-30T05:49:54;7.88;;;4.18;;
75426;SDS011;64007;50.632;13.700;2023-04-30T05:52:21;6.57;;;3.70;;
75426;SDS011;64007;50.632;13.700;2023-04-30T05:54:47;8.75;;;3.40;;
75426;SDS011;64007;50.632;13.700;2023-04-30T05:57:13;6.10;;;3.70;;
75426;SDS011;64007;50.632;13.700;2023-04-30T05:59:39;11.60;;;4.60;;
75426;SDS011;64007;50.632;13.700;2023-04-30T06:02:05;5.63;;;4.03;;
75426;SDS011;64007;50.632;13.700;2023-04-30T06:04:31;7.82;;;4.32;;
75426;SDS011;64007;50.632;13.700;2023-04-30T06:06:57;6.38;;;4.10;;
75426;SDS011;64007;50.632;13.700;2023-04-30T06:09:22;7.55;;;3.92;;
75426;SDS011;64007;50.632;13.700;2023-04-30T06:11:48;9.15;;;3.95;;
75426;SDS011;64007;50.632;13.700;2023-04-30T06:14:16;8.23;;;3.92;;
75426;SDS011;64007;50.632;13.700;2023-04-30T06:16:44;5.47;;;3.65;;
75426;SDS011;64007;50.632;13.700;2023-04-30T06:19:10;6.57;;;3.63;;
75426;SDS011;64007;50.632;13.700;2023-04-30T06:21:36;7.20;;;3.70;;
75426;SDS011;64007;50.632;13.700;2023-04-30T06:24:02;6.47;;;4.00;;
75426;SDS011;64007;50.632;13.700;2023-04-30T06:26:28;5.30;;;3.38;;
75426;SDS011;64007;50.632;13.700;2023-04-30T06:28:53;6.50;;;3.90;;
75426;SDS011;64007;50.632;13.700;2023-04-30T06:31:20;7.03;;;3.35;;
75426;SDS011;64007;50.632;13.700;2023-04-30T06:33:46;6.00;;;3.85;;
75426;SDS011;64007;50.632;13.700;2023-04-30T06:36:11;6.13;;;3.88;;
75426;SDS011;64007;50.632;13.700;2023-04-30T06:38:37;6.30;;;4.00;;
75426;SDS011;64007;50.632;13.700;2023-04-30T06:41:04;5.72;;;3.78;;
75426;SDS011;64007;50.632;13.700;2023-04-30T06:43:30;4.97;;;3.70;;
75426;SDS011;64007;50.632;13.700;2023-04-30T06:45:55;8.30;;;3.65;;
75426;SDS011;64007;50.632;13.700;2023-04-30T06:48:21;6.88;;;4.13;;
75426;SDS011;64007;50.632;13.700;2023-04-30T06:50:47;6.13;;;3.47;;
75426;SDS011;64007;50.632;13.700;2023-04-30T06:53:13;7.68;;;3.90;;
75426;SDS011;64007;50.632;13.700;2023-04-30T06:55:39;6.65;;;3.58;;
75426;SDS011;64007;50.632;13.700;2023-04-30T06:58:06;7.00;;;3.72;;
75426;SDS011;64007;50.632;13.700;2023-04-30T07:00:32;7.13;;;3.63;;
75426;SDS011;64007;50.632;13.700;2023-04-30T07:02:58;7.43;;;3.90;;
75426;SDS011;64007;50.632;13.700;2023-04-30T07:05:27;5.65;;;3.60;;
75426;SDS011;64007;50.632;13.700;2023-04-30T07:07:53;7.25;;;3.55;;
75426;SDS011;64007;50.632;13.700;2023-04-30T07:10:19;8.70;;;3.40;;
75426;SDS011;64007;50.632;13.700;2023-04-30T07:12:45;5.35;;;3.00;;
75426;SDS011;64007;50.632;13.700;2023-04-30T07:15:10;4.70;;;3.13;;
75426;SDS011;64007;50.632;13.700;2023-04-30T07:17:37;4.60;;;3.00;;
75426;SDS011;64007;50.632;13.700;2023-04-30T07:20:03;7.57;;;2.97;;
75426;SDS011;64007;50.632;13.700;2023-04-30T07:22:30;4.93;;;3.00;;
75426;SDS011;64007;50.632;13.700;2023-04-30T07:24:56;4.80;;;2.63;;
75426;SDS011;64007;50.632;13.700;2023-04-30T07:27:22;4.97;;;2.75;;
75426;SDS011;64007;50.632;13.700;2023-04-30T07:29:47;5.28;;;2.78;;
75426;SDS011;64007;50.632;13.700;2023-04-30T07:32:13;5.57;;;2.70;;
75426;SDS011;64007;50.632;13.700;2023-04-30T07:34:40;7.22;;;3.20;;
75426;SDS011;64007;50.632;13.700;2023-04-30T07:37:07;9.20;;;2.90;;
75426;SDS011;64007;50.632;13.700;2023-04-30T07:39:33;5.95;;;2.92;;
75426;SDS011;64007;50.632;13.700;2023-04-30T07:42:01;10.30;;;2.90;;
75426;SDS011;64007;50.632;13.700;2023-04-30T07:44:28;5.35;;;2.55;;
75426;SDS011;64007;50.632;13.700;2023-04-30T07:46:55;7.15;;;2.60;;
75426;SDS011;64007;50.632;13.700;2023-04-30T07:49:20;4.13;;;2.45;;
75426;SDS011;64007;50.632;13.700;2023-04-30T07:51:46;4.53;;;2.47;;
75426;SDS011;64007;50.632;13.700;2023-04-30T07:54:12;4.60;;;2.67;;
75426;SDS011;64007;50.632;13.700;2023-04-30T07:56:38;6.90;;;2.88;;
75426;SDS011;64007;50.632;13.700;2023-04-30T07:59:04;5.60;;;2.88;;
75426;SDS011;64007;50.632;13.700;2023-04-30T08:01:30;4.45;;;2.45;;
75426;SDS011;64007;50.632;13.700;2023-04-30T08:03:56;7.38;;;2.80;;
75426;SDS011;64007;50.632;13.700;2023-04-30T08:06:22;4.13;;;2.92;;
75426;SDS011;64007;50.632;13.700;2023-04-30T08:08:48;4.63;;;2.97;;
75426;SDS011;64007;50.632;13.700;2023-04-30T08:11:14;5.40;;;2.78;;
75426;SDS011;64007;50.632;13.700;2023-04-30T08:13:40;3.67;;;2.53;;
75426;SDS011;64007;50.632;13.700;2023-04-30T08:16:06;5.28;;;3.13;;
75426;SDS011;64007;50.632;13.700;2023-04-30T08:18:32;5.63;;;3.13;;
75426;SDS011;64007;50.632;13.700;2023-04-30T08:20:58;6.38;;;3.08;;
75426;SDS011;64007;50.632;13.700;2023-04-30T08:23:25;5.90;;;2.53;;
75426;SDS011;64007;50.632;13.700;2023-04-30T08:25:51;5.18;;;2.42;;
75426;SDS011;64007;50.632;13.700;2023-04-30T08:28:17;3.83;;;2.58;;
75426;SDS011;64007;50.632;13.700;2023-04-30T08:30:43;5.18;;;2.78;;
75426;SDS011;64007;50.632;13.700;2023-04-30T08:33:09;5.30;;;2.85;;
75426;SDS011;64007;50.632;13.700;2023-04-30T08:35:35;5.32;;;2.70;;
75426;SDS011;64007;50.632;13.700;2023-04-30T08:38:01;4.00;;;2.28;;
75426;SDS011;64007;50.632;13.700;2023-04-30T08:40:27;6.75;;;2.78;;
75426;SDS011;64007;50.632;13.700;2023-04-30T08:42:59;7.88;;;2.50;;
75426;SDS011;64007;50.632;13.700;2023-04-30T08:45:30;5.28;;;2.03;;
75426;SDS011;64007;50.632;13.700;2023-04-30T08:47:57;3.15;;;2.03;;
75426;SDS011;64007;50.632;13.700;2023-04-30T08:50:24;3.80;;;2.50;;
75426;SDS011;64007;50.632;13.700;2023-04-30T08:52:53;4.47;;;2.45;;
75426;SDS011;64007;50.632;13.700;2023-04-30T08:55:19;5.25;;;2.72;;
75426;SDS011;64007;50.632;13.700;2023-04-30T08:57:45;4.63;;;2.35;;
75426;SDS011;64007;50.632;13.700;2023-04-30T09:00:11;5.75;;;2.30;;
75426;SDS011;64007;50.632;13.700;2023-04-30T09:02:40;4.53;;;2.22;;
75426;SDS011;64007;50.632;13.700;2023-04-30T09:05:08;4.35;;;2.20;;
75426;SDS011;64007;50.632;13.700;2023-04-30T09:07:37;4.82;;;2.50;;
75426;SDS011;64007;50.632;13.700;2023-04-30T09:10:16;6.40;;;2.40;;
75426;SDS011;64007;50.632;13.700;2023-04-30T09:12:44;3.60;;;2.13;;
75426;SDS011;64007;50.632;13.700;2023-04-30T09:15:23;4.43;;;2.13;;
75426;SDS011;64007;50.632;13.700;2023-04-30T09:17:48;4.22;;;2.38;;
75426;SDS011;64007;50.632;13.700;2023-04-30T09:20:14;5.43;;;1.80;;
75426;SDS011;64007;50.632;13.700;2023-04-30T09:22:41;3.80;;;2.00;;
75426;SDS011;64007;50.632;13.700;2023-04-30T09:25:07;4.85;;;2.28;;
75426;SDS011;64007;50.632;13.700;2023-04-30T09:27:33;3.03;;;2.03;;
75426;SDS011;64007;50.632;13.700;2023-04-30T09:29:59;4.25;;;1.70;;
75426;SDS011;64007;50.632;13.700;2023-04-30T09:32:25;4.25;;;1.65;;
75426;SDS011;64007;50.632;13.700;2023-04-30T09:34:51;5.60;;;1.50;;
75426;SDS011;64007;50.632;13.700;2023-04-30T09:37:17;3.63;;;1.50;;
75426;SDS011;64007;50.632;13.700;2023-04-30T09:39:50;2.95;;;1.60;;
75426;SDS011;64007;50.632;13.700;2023-04-30T09:42:19;4.13;;;1.90;;
75426;SDS011;64007;50.632;13.700;2023-04-30T09:44:45;7.20;;;2.13;;
75426;SDS011;64007;50.632;13.700;2023-04-30T09:47:13;6.05;;;2.03;;
75426;SDS011;64007;50.632;13.700;2023-04-30T09:49:45;4.65;;;1.98;;
75426;SDS011;64007;50.632;13.700;2023-04-30T09:52:15;4.53;;;1.98;;
75426;SDS011;64007;50.632;13.700;2023-04-30T09:54:43;3.70;;;1.83;;
75426;SDS011;64007;50.632;13.700;2023-04-30T09:57:10;3.70;;;1.40;;
75426;SDS011;64007;50.632;13.700;2023-04-30T09:59:38;3.88;;;1.80;;
75426;SDS011;64007;50.632;13.700;2023-04-30T10:02:08;3.35;;;1.95;;
75426;SDS011;64007;50.632;13.700;2023-04-30T10:04:36;4.07;;;1.70;;
75426;SDS011;64007;50.632;13.700;2023-04-30T10:07:03;3.17;;;1.65;;
75426;SDS011;64007;50.632;13.700;2023-04-30T10:09:34;2.88;;;1.77;;
75426;SDS011;64007;50.632;13.700;2023-04-30T10:12:04;2.60;;;1.50;;
75426;SDS011;64007;50.632;13.700;2023-04-30T10:14:38;3.05;;;1.70;;
75426;SDS011;64007;50.632;13.700;2023-04-30T10:17:12;2.92;;;1.70;;
75426;SDS011;64007;50.632;13.700;2023-04-30T10:19:42;7.35;;;2.13;;
75426;SDS011;64007;50.632;13.700;2023-04-30T10:22:12;6.18;;;2.20;;
75426;SDS011;64007;50.632;13.700;2023-04-30T10:24:38;4.97;;;1.85;;
75426;SDS011;64007;50.632;13.700;2023-04-30T10:27:06;3.00;;;1.50;;
75426;SDS011;64007;50.632;13.700;2023-04-30T10:29:32;4.05;;;1.52;;
75426;SDS011;64007;50.632;13.700;2023-04-30T10:31:57;2.72;;;1.42;;
75426;SDS011;64007;50.632;13.700;2023-04-30T10:40:02;3.22;;;1.60;;
75426;SDS011;64007;50.632;13.700;2023-04-30T10:42:29;6.03;;;1.65;;
75426;SDS011;64007;50.632;13.700;2023-04-30T10:44:55;4.05;;;1.70;;
75426;SDS011;64007;50.632;13.700;2023-04-30T10:47:26;2.60;;;1.48;;
75426;SDS011;64007;50.632;13.700;2023-04-30T10:50:00;3.60;;;1.52;;
75426;SDS011;64007;50.632;13.700;2023-04-30T10:52:27;2.38;;;1.20;;
75426;SDS011;64007;50.632;13.700;2023-04-30T10:54:54;1.85;;;1.30;;
75426;SDS011;64007;50.632;13.700;2023-04-30T10:57:20;4.20;;;1.50;;
75426;SDS011;64007;50.632;13.700;2023-04-30T11:00:16;4.05;;;1.70;;
75426;SDS011;64007;50.632;13.700;2023-04-30T11:02:45;3.28;;;1.92;;
75426;SDS011;64007;50.632;13.700;2023-04-30T11:05:16;3.53;;;1.85;;
75426;SDS011;64007;50.632;13.700;2023-04-30T11:07:56;2.13;;;1.20;;
75426;SDS011;64007;50.632;13.700;2023-04-30T11:10:23;2.03;;;1.35;;
75426;SDS011;64007;50.632;13.700;2023-04-30T11:12:51;2.42;;;1.20;;
75426;SDS011;64007;50.632;13.700;2023-04-30T11:15:24;3.47;;;1.35;;
75426;SDS011;64007;50.632;13.700;2023-04-30T11:17:55;2.90;;;1.35;;
75426;SDS011;64007;50.632;13.700;2023-04-30T11:20:23;2.83;;;1.23;;
75426;SDS011;64007;50.632;13.700;2023-04-30T11:25:42;3.97;;;1.35;;
75426;SDS011;64007;50.632;13.700;2023-04-30T11:28:24;2.10;;;1.00;;
75426;SDS011;64007;50.632;13.700;2023-04-30T11:30:55;1.88;;;1.23;;
75426;SDS011;64007;50.632;13.700;2023-04-30T11:33:23;4.55;;;1.20;;
75426;SDS011;64007;50.632;13.700;2023-04-30T11:35:50;6.57;;;1.23;;
75426;SDS011;64007;50.632;13.700;2023-04-30T11:38:20;3.53;;;1.33;;
75426;SDS011;64007;50.632;13.700;2023-04-30T11:40:50;7.80;;;1.20;;
75426;SDS011;64007;50.632;13.700;2023-04-30T11:43:25;5.00;;;1.20;;
75426;SDS011;64007;50.632;13.700;2023-04-30T11:46:03;1.80;;;1.10;;
75426;SDS011;64007;50.632;13.700;2023-04-30T11:48:32;2.47;;;1.15;;
75426;SDS011;64007;50.632;13.700;2023-04-30T11:51:12;2.22;;;1.10;;
75426;SDS011;64007;50.632;13.700;2023-04-30T11:53:38;2.55;;;1.20;;
75426;SDS011;64007;50.632;13.700;2023-04-30T11:56:04;3.65;;;1.27;;
75426;SDS011;64007;50.632;13.700;2023-04-30T11:58:36;1.65;;;1.02;;
75426;SDS011;64007;50.632;13.700;2023-04-30T12:01:04;1.98;;;1.20;;
75426;SDS011;64007;50.632;13.700;2023-04-30T12:03:47;4.30;;;1.20;;
75426;SDS011;64007;50.632;13.700;2023-04-30T12:06:21;2.08;;;1.00;;
75426;SDS011;64007;50.632;13.700;2023-04-30T12:08:46;3.13;;;1.35;;
75426;SDS011;64007;50.632;13.700;2023-04-30T12:11:19;4.10;;;1.40;;
75426;SDS011;64007;50.632;13.700;2023-04-30T12:16:26;3.15;;;1.38;;
75426;SDS011;64007;50.632;13.700;2023-04-30T12:18:53;2.63;;;1.23;;
75426;SDS011;64007;50.632;13.700;2023-04-30T12:21:20;4.55;;;1.23;;
75426;SDS011;64007;50.632;13.700;2023-04-30T12:23:47;4.15;;;1.00;;
75426;SDS011;64007;50.632;13.700;2023-04-30T12:26:13;3.13;;;1.20;;
75426;SDS011;64007;50.632;13.700;2023-04-30T12:28:38;4.03;;;1.23;;
75426;SDS011;64007;50.632;13.700;2023-04-30T12:31:04;2.33;;;1.13;;
75426;SDS011;64007;50.632;13.700;2023-04-30T12:33:30;2.53;;;1.02;;
75426;SDS011;64007;50.632;13.700;2023-04-30T12:35:56;3.28;;;1.20;;
75426;SDS011;64007;50.632;13.700;2023-04-30T12:38:23;4.75;;;1.10;;
75426;SDS011;64007;50.632;13.700;2023-04-30T12:40:49;2.15;;;1.00;;
75426;SDS011;64007;50.632;13.700;2023-04-30T12:43:15;2.63;;;1.13;;
75426;SDS011;64007;50.632;13.700;2023-04-30T12:45:51;4.13;;;1.20;;
75426;SDS011;64007;50.632;13.700;2023-04-30T12:48:19;3.53;;;1.20;;
75426;SDS011;64007;50.632;13.700;2023-04-30T12:51:08;3.58;;;1.13;;
75426;SDS011;64007;50.632;13.700;2023-04-30T12:53:34;4.45;;;1.30;;
75426;SDS011;64007;50.632;13.700;2023-04-30T12:56:13;2.22;;;1.13;;
75426;SDS011;64007;50.632;13.700;2023-04-30T12:58:41;2.50;;;1.20;;
75426;SDS011;64007;50.632;13.700;2023-04-30T13:01:11;2.20;;;1.05;;
75426;SDS011;64007;50.632;13.700;2023-04-30T13:03:37;3.33;;;1.20;;
75426;SDS011;64007;50.632;13.700;2023-04-30T13:06:04;3.90;;;1.27;;
75426;SDS011;64007;50.632;13.700;2023-04-30T13:08:31;3.17;;;1.20;;
75426;SDS011;64007;50.632;13.700;2023-04-30T13:10:56;3.83;;;1.42;;
75426;SDS011;64007;50.632;13.700;2023-04-30T13:13:22;2.65;;;1.10;;
75426;SDS011;64007;50.632;13.700;2023-04-30T13:15:48;3.58;;;1.40;;
75426;SDS011;64007;50.632;13.700;2023-04-30T13:18:13;2.22;;;1.10;;
75426;SDS011;64007;50.632;13.700;2023-04-30T13:20:42;2.80;;;1.10;;
75426;SDS011;64007;50.632;13.700;2023-04-30T13:23:08;4.55;;;1.50;;
75426;SDS011;64007;50.632;13.700;2023-04-30T13:25:36;1.73;;;0.90;;
75426;SDS011;64007;50.632;13.700;2023-04-30T13:28:03;4.30;;;1.30;;
75426;SDS011;64007;50.632;13.700;2023-04-30T13:30:29;3.28;;;1.42;;
75426;SDS011;64007;50.632;13.700;2023-04-30T13:32:54;2.42;;;1.20;;
75426;SDS011;64007;50.632;13.700;2023-04-30T13:35:20;3.95;;;1.42;;
75426;SDS011;64007;50.632;13.700;2023-04-30T13:37:46;1.65;;;1.00;;
75426;SDS011;64007;50.632;13.700;2023-04-30T13:40:17;3.95;;;1.30;;
75426;SDS011;64007;50.632;13.700;2023-04-30T13:42:43;2.95;;;1.30;;
75426;SDS011;64007;50.632;13.700;2023-04-30T13:45:11;2.80;;;1.45;;
75426;SDS011;64007;50.632;13.700;2023-04-30T13:47:36;2.13;;;1.20;;
75426;SDS011;64007;50.632;13.700;2023-04-30T13:50:03;2.97;;;1.30;;
75426;SDS011;64007;50.632;13.700;2023-04-30T13:52:29;3.08;;;1.20;;
75426;SDS011;64007;50.632;13.700;2023-04-30T13:54:55;2.55;;;1.30;;
75426;SDS011;64007;50.632;13.700;2023-04-30T13:57:22;2.47;;;1.17;;
75426;SDS011;64007;50.632;13.700;2023-04-30T13:59:48;2.22;;;1.00;;
75426;SDS011;64007;50.632;13.700;2023-04-30T14:02:14;2.92;;;1.17;;
75426;SDS011;64007;50.632;13.700;2023-04-30T14:04:40;2.78;;;1.23;;
75426;SDS011;64007;50.632;13.700;2023-04-30T14:07:06;3.83;;;1.48;;
75426;SDS011;64007;50.632;13.700;2023-04-30T14:09:31;4.68;;;1.40;;
75426;SDS011;64007;50.632;13.700;2023-04-30T14:11:57;2.40;;;1.20;;
75426;SDS011;64007;50.632;13.700;2023-04-30T14:14:23;3.92;;;1.40;;
75426;SDS011;64007;50.632;13.700;2023-04-30T14:16:50;4.15;;;1.40;;
75426;SDS011;64007;50.632;13.700;2023-04-30T14:19:16;5.25;;;1.60;;
75426;SDS011;64007;50.632;13.700;2023-04-30T14:21:42;3.13;;;1.75;;
75426;SDS011;64007;50.632;13.700;2023-04-30T14:24:08;4.53;;;1.25;;
75426;SDS011;64007;50.632;13.700;2023-04-30T14:26:37;3.08;;;1.30;;
75426;SDS011;64007;50.632;13.700;2023-04-30T14:29:04;1.85;;;1.05;;
75426;SDS011;64007;50.632;13.700;2023-04-30T14:31:31;2.00;;;1.30;;
75426;SDS011;64007;50.632;13.700;2023-04-30T14:33:56;2.75;;;1.10;;
75426;SDS011;64007;50.632;13.700;2023-04-30T14:36:22;2.08;;;1.08;;
75426;SDS011;64007;50.632;13.700;2023-04-30T14:38:48;2.40;;;1.10;;
75426;SDS011;64007;50.632;13.700;2023-04-30T14:41:14;3.85;;;1.27;;
75426;SDS011;64007;50.632;13.700;2023-04-30T14:43:39;2.83;;;1.42;;
75426;SDS011;64007;50.632;13.700;2023-04-30T14:46:06;3.60;;;1.40;;
75426;SDS011;64007;50.632;13.700;2023-04-30T14:48:31;3.03;;;1.02;;
75426;SDS011;64007;50.632;13.700;2023-04-30T14:51:00;2.45;;;1.13;;
75426;SDS011;64007;50.632;13.700;2023-04-30T14:53:26;3.22;;;1.20;;
75426;SDS011;64007;50.632;13.700;2023-04-30T14:55:52;3.60;;;1.15;;
75426;SDS011;64007;50.632;13.700;2023-04-30T14:58:18;2.25;;;1.10;;
75426;SDS011;64007;50.632;13.700;2023-04-30T15:00:45;6.07;;;1.17;;